Lottsburg, VA (22511)

5:17 PM EDT on July 29, 2016 (GMT -0400)
Heathsville, Va. | | Change Station

Elev 112 ft 37.92 °N, 76.47 °W | Updated 27 minutes ago

Partly Cloudy
Partly Cloudy
84.8 °F
Feels Like 92 °F
N
0.0
Wind Variable Wind from SE
Gusts 1.0 mph

Today
High -- | Low -- °F
--% Chance of Precip.
Yesterday
High -- | Low -- °F
Precip. -- in
Pressure 29.86 in
Visibility 10.0 miles
Clouds Few 4500 ft
Heat Index 92 °F
Dew Point 74 °F
Humidity 69%
Rainfall 0.09 in
Snow Depth Not available.
6:07 AM 8:17 PM
Waning Crescent, 19% visible
METAR KNUI 292053Z AUTO VRB03KT 10SM FEW045 31/21 A2986 RMK AO2 SLP112 T03110206 58000
Pressure 29.86 in
Visibility 10.0 miles
Clouds Few 4500 ft
Heat Index 92 °F
Dew Point 74 °F
Humidity 69%
Rainfall 0.09 in
Snow Depth Not available.
6:07 AM 8:17 PM
Waning Crescent, 19% visible
METAR KNUI 292053Z AUTO VRB03KT 10SM FEW045 31/21 A2986 RMK AO2 SLP112 T03110206 58000

10-Day Weather Forecast

Almanac

Astronomy

Jul. 29, 2016 Rise Set
Actual Time
Civil Twilight
Nautical Twilight
Astronomical Twilight
Moon
Length of Visible Light
Length of Day
Tomorrow will be .
, % of the Moon is Illuminated

Today's Extremes

State Highs State Lows

Community

WunderPhotos

Upload Photos

1,928,421 photos uploaded!

WunderBlog® & News

Nearby

Air Quality

  Air Quality AQ Index Pollutant
Not available.

Snow Depth

Station Depth Elevation

Earthquake Activity

City Distance Mag. Time & Date
Minimum magnitude displayed is 2.5.

Coastal Water Temperatures

Place Temperature

Stations

Nearby Weather Stations

Station Location Temp. Windchill Dew Point Humidity Wind Precip. Elev Updated Type
                   

Watches & Warnings

There are currently no watches in effect.